createdAt,value
2022-08-04T00:00:06.180Z,27.30
2022-08-04T00:00:26.180Z,27.31
2022-08-04T00:00:36.183Z,27.30
2022-08-04T00:00:46.193Z,27.33
2022-08-04T00:00:56.182Z,27.27
2022-08-04T00:01:06.271Z,27.31
2022-08-04T00:01:16.228Z,27.31
2022-08-04T00:01:26.202Z,27.31
2022-08-04T00:01:36.209Z,27.31
2022-08-04T00:01:46.272Z,27.33
2022-08-04T00:01:56.243Z,27.33
2022-08-04T00:02:06.185Z,27.34
2022-08-04T00:02:16.173Z,27.34
2022-08-04T00:02:26.186Z,27.30
2022-08-04T00:02:36.171Z,27.31
2022-08-04T00:02:46.167Z,27.34
2022-08-04T00:02:56.166Z,27.31
2022-08-04T00:03:06.163Z,27.35
2022-08-04T00:03:16.162Z,27.35
2022-08-04T00:03:36.161Z,27.31
2022-08-04T00:03:46.155Z,27.33
2022-08-04T00:03:56.160Z,27.33
2022-08-04T00:04:06.156Z,27.34
2022-08-04T00:04:16.157Z,27.33
2022-08-04T00:04:26.154Z,27.33
2022-08-04T00:04:36.155Z,27.31
2022-08-04T00:04:46.150Z,27.33
2022-08-04T00:04:56.155Z,27.33
2022-08-04T00:05:06.148Z,27.33
2022-08-04T00:05:16.150Z,27.31
2022-08-04T00:05:26.146Z,27.31
2022-08-04T00:05:36.147Z,27.30
2022-08-04T00:05:46.146Z,27.31
2022-08-04T00:06:06.142Z,27.28
2022-08-04T00:06:16.149Z,27.31
2022-08-04T00:06:26.140Z,27.31
2022-08-04T00:06:36.145Z,27.31
2022-08-04T00:06:46.138Z,27.30
2022-08-04T00:06:56.141Z,27.30
2022-08-04T00:07:06.135Z,27.31
2022-08-04T00:07:16.140Z,27.30
2022-08-04T00:07:44.366Z,27.30
2022-08-04T00:07:49.580Z,27.28
2022-08-04T00:07:54.253Z,27.33
2022-08-04T00:08:04.266Z,27.28
2022-08-04T00:08:14.241Z,27.28
2022-08-04T00:08:24.246Z,27.31
2022-08-04T00:08:34.241Z,27.30
2022-08-04T00:08:44.243Z,27.31
2022-08-04T00:08:55.615Z,27.30
2022-08-04T00:09:04.239Z,27.31
2022-08-04T00:09:14.239Z,27.30
2022-08-04T00:09:24.239Z,27.28
2022-08-04T00:09:34.231Z,27.28
2022-08-04T00:09:44.235Z,27.25
2022-08-04T00:09:54.230Z,27.27
2022-08-04T00:10:04.231Z,27.28
2022-08-04T00:10:14.232Z,27.27
2022-08-04T00:10:24.331Z,27.27
2022-08-04T00:10:34.251Z,27.25
2022-08-04T00:10:44.225Z,27.25
2022-08-04T00:10:54.224Z,27.27
2022-08-04T00:11:15.734Z,27.28
2022-08-04T00:11:24.224Z,27.30
2022-08-04T00:11:34.250Z,27.28
2022-08-04T00:11:44.220Z,27.28
2022-08-04T00:11:54.215Z,27.28
2022-08-04T00:12:04.221Z,27.30
2022-08-04T00:12:14.216Z,27.30
2022-08-04T00:12:31.487Z,27.28
2022-08-04T00:12:39.522Z,27.28
2022-08-04T00:12:44.421Z,27.34
2022-08-04T00:12:54.418Z,27.31
2022-08-04T00:13:04.435Z,27.28
2022-08-04T00:13:14.416Z,27.33
2022-08-04T00:13:24.418Z,27.30
2022-08-04T00:13:34.415Z,27.30
2022-08-04T00:13:59.691Z,27.31
2022-08-04T00:14:07.909Z,27.30
2022-08-04T00:14:12.571Z,27.31
2022-08-04T00:14:22.571Z,27.31
2022-08-04T00:14:32.568Z,27.30
2022-08-04T00:14:42.570Z,27.30
2022-08-04T00:14:52.569Z,27.28
2022-08-04T00:15:02.572Z,27.31
2022-08-04T00:15:14.933Z,27.28
2022-08-04T00:15:22.584Z,27.28
2022-08-04T00:15:32.565Z,27.27
2022-08-04T00:15:42.568Z,27.27
2022-08-04T00:15:52.562Z,27.27
2022-08-04T00:16:02.564Z,27.28
2022-08-04T00:16:12.558Z,27.28
2022-08-04T00:16:22.563Z,27.27
2022-08-04T00:16:34.844Z,27.28
2022-08-04T00:16:42.823Z,27.28
2022-08-04T00:16:52.556Z,27.28
2022-08-04T00:17:02.561Z,27.28
2022-08-04T00:17:12.593Z,27.30
2022-08-04T00:17:22.858Z,27.33
2022-08-04T00:17:32.556Z,27.31
2022-08-04T00:17:42.553Z,27.31
2022-08-04T00:17:52.566Z,27.31
2022-08-04T00:18:02.550Z,27.33
2022-08-04T00:18:12.574Z,27.31
2022-08-04T00:18:22.546Z,27.31
2022-08-04T00:18:32.544Z,27.31
2022-08-04T00:18:42.556Z,27.34
2022-08-04T00:18:52.545Z,27.34
2022-08-04T00:19:02.543Z,27.33
2022-08-04T00:19:12.546Z,27.33
2022-08-04T00:19:22.545Z,27.34
2022-08-04T00:19:32.535Z,27.35
2022-08-04T00:19:42.538Z,27.35
2022-08-04T00:19:52.533Z,27.34
2022-08-04T00:20:02.539Z,27.34
2022-08-04T00:20:12.529Z,27.31
2022-08-04T00:20:22.534Z,27.35
2022-08-04T00:20:32.532Z,27.34
2022-08-04T00:20:42.533Z,27.34
2022-08-04T00:20:52.529Z,27.31
2022-08-04T00:21:02.531Z,27.34
2022-08-04T00:21:12.692Z,27.34
2022-08-04T00:21:22.527Z,27.34
2022-08-04T00:21:42.525Z,27.31
2022-08-04T00:21:52.524Z,27.33
2022-08-04T00:22:02.522Z,27.31
2022-08-04T00:22:12.526Z,27.33
2022-08-04T00:22:22.519Z,27.31
2022-08-04T00:22:32.516Z,27.33
2022-08-04T00:22:42.528Z,27.30
2022-08-04T00:22:52.515Z,27.27
2022-08-04T00:23:02.552Z,27.30
2022-08-04T00:23:12.512Z,27.30
2022-08-04T00:23:22.515Z,27.30
2022-08-04T00:24:10.361Z,27.28
2022-08-04T00:24:52.321Z,27.25
2022-08-04T00:24:56.985Z,27.25
2022-08-04T00:25:06.985Z,27.27
2022-08-04T00:25:17.003Z,27.28
2022-08-04T00:25:26.986Z,27.27
2022-08-04T00:25:36.981Z,27.27
2022-08-04T00:25:46.977Z,27.27
2022-08-04T00:25:56.983Z,27.28
2022-08-04T00:26:06.988Z,27.24
2022-08-04T00:26:16.983Z,27.27
2022-08-04T00:26:26.976Z,27.27
2022-08-04T00:26:36.974Z,27.24
2022-08-04T00:26:46.974Z,27.28
2022-08-04T00:26:56.974Z,27.25
2022-08-04T00:27:06.969Z,27.25
2022-08-04T00:27:16.973Z,27.25
2022-08-04T00:27:26.969Z,27.24
2022-08-04T00:27:36.974Z,27.23
2022-08-04T00:27:46.970Z,27.21
2022-08-04T00:27:56.968Z,27.23
2022-08-04T00:28:06.964Z,27.21
2022-08-04T00:28:16.967Z,27.20
2022-08-04T00:28:26.975Z,27.23
2022-08-04T00:28:36.966Z,27.20
2022-08-04T00:28:46.959Z,27.18
2022-08-04T00:28:56.963Z,27.18
2022-08-04T00:29:06.959Z,27.16
2022-08-04T00:29:16.960Z,27.16
2022-08-04T00:29:26.956Z,27.18
2022-08-04T00:29:36.955Z,27.16
2022-08-04T00:29:46.958Z,27.16
2022-08-04T00:29:56.955Z,27.15
2022-08-04T00:30:06.949Z,27.13
2022-08-04T00:30:16.950Z,27.15
2022-08-04T00:30:26.964Z,27.15
2022-08-04T00:30:36.949Z,27.15
2022-08-04T00:30:46.946Z,27.13
2022-08-04T00:30:56.972Z,27.18
2022-08-04T00:31:06.944Z,27.13
2022-08-04T00:31:16.945Z,27.15
2022-08-04T00:31:33.308Z,27.15
2022-08-04T00:32:00.315Z,27.15
2022-08-04T00:32:04.984Z,27.15
2022-08-04T00:32:14.981Z,27.13
2022-08-04T00:32:38.754Z,27.15
2022-08-04T00:32:43.423Z,27.13
2022-08-04T00:32:53.413Z,27.15
2022-08-04T00:33:03.416Z,27.18
2022-08-04T00:33:13.412Z,27.13
2022-08-04T00:33:23.414Z,27.15
2022-08-04T00:33:33.409Z,27.16
2022-08-04T00:33:43.419Z,27.15
2022-08-04T00:33:53.409Z,27.15
2022-08-04T00:34:03.410Z,27.12
2022-08-04T00:34:13.406Z,27.13
2022-08-04T00:34:23.424Z,27.11
2022-08-04T00:34:33.403Z,27.13
2022-08-04T00:34:43.406Z,27.13
2022-08-04T00:34:53.407Z,27.13
2022-08-04T00:35:03.409Z,27.11
2022-08-04T00:35:13.400Z,27.08
2022-08-04T00:35:23.399Z,27.09
2022-08-04T00:35:33.412Z,27.09
2022-08-04T00:35:43.399Z,27.11
2022-08-04T00:35:53.398Z,27.11
2022-08-04T00:36:03.395Z,27.09
2022-08-04T00:36:13.395Z,27.09
2022-08-04T00:36:23.393Z,27.08
2022-08-04T00:36:33.388Z,27.08
2022-08-04T00:36:43.394Z,27.09
2022-08-04T00:36:53.390Z,27.11
2022-08-04T00:37:03.399Z,27.06
2022-08-04T00:37:13.390Z,27.09
2022-08-04T00:37:23.596Z,27.08
2022-08-04T00:37:33.382Z,27.09
2022-08-04T00:37:43.390Z,27.11
2022-08-04T00:37:53.378Z,27.09
2022-08-04T00:38:03.385Z,27.11
2022-08-04T00:38:13.381Z,27.09
2022-08-04T00:38:23.382Z,27.11
2022-08-04T00:38:33.375Z,27.09
2022-08-04T00:38:43.390Z,27.08
2022-08-04T00:38:53.424Z,27.05
2022-08-04T00:39:03.466Z,27.06
2022-08-04T00:39:13.415Z,27.05
2022-08-04T00:39:23.510Z,27.06
2022-08-04T00:39:33.434Z,27.02
2022-08-04T00:39:43.421Z,27.03
2022-08-04T00:39:53.368Z,27.02
2022-08-04T00:40:03.368Z,27.02
2022-08-04T00:40:13.371Z,27.02
2022-08-04T00:40:23.368Z,27.02
2022-08-04T00:40:33.364Z,27.03
2022-08-04T00:40:43.367Z,27.03
2022-08-04T00:40:53.373Z,27.05
2022-08-04T00:41:03.362Z,27.02
2022-08-04T00:41:13.362Z,27.02
2022-08-04T00:41:23.361Z,27.02
2022-08-04T00:41:33.358Z,27.01
2022-08-04T00:41:56.872Z,27.01
2022-08-04T00:42:01.683Z,27.01
2022-08-04T00:42:06.354Z,26.98
2022-08-04T00:42:16.347Z,27.02
2022-08-04T00:42:26.352Z,27.01
2022-08-04T00:42:36.349Z,26.98
2022-08-04T00:42:58.363Z,26.96
2022-08-04T00:43:03.883Z,26.98
2022-08-04T00:43:09.489Z,26.98
2022-08-04T00:43:19.477Z,26.97
2022-08-04T00:43:29.495Z,26.96
2022-08-04T00:43:39.479Z,26.98
2022-08-04T00:43:49.475Z,26.96
2022-08-04T00:43:59.474Z,26.98
2022-08-04T00:44:09.477Z,26.94
2022-08-04T00:44:24.078Z,26.97
2022-08-04T00:44:29.490Z,26.94
2022-08-04T00:44:39.476Z,26.94
2022-08-04T00:44:49.474Z,26.94
2022-08-04T00:44:59.466Z,26.93
2022-08-04T00:45:09.469Z,26.94
2022-08-04T00:45:19.464Z,26.91
2022-08-04T00:45:29.467Z,26.93
2022-08-04T00:46:15.451Z,26.94
2022-08-04T00:46:21.429Z,26.94
2022-08-04T00:46:26.091Z,26.90
2022-08-04T00:46:36.097Z,26.90
2022-08-04T00:46:46.087Z,26.91
2022-08-04T00:46:56.098Z,26.93
2022-08-04T00:47:06.089Z,26.94
2022-08-04T00:47:16.088Z,26.91
2022-08-04T00:47:26.086Z,26.93
2022-08-04T00:47:36.097Z,26.93
2022-08-04T00:47:46.081Z,26.93
2022-08-04T00:47:56.087Z,26.94
2022-08-04T00:48:06.084Z,26.94
2022-08-04T00:48:16.087Z,26.96
2022-08-04T00:48:26.078Z,26.94
2022-08-04T00:48:36.082Z,26.94
2022-08-04T00:48:46.075Z,26.94
2022-08-04T00:48:56.082Z,26.98
2022-08-04T00:49:06.079Z,26.97
2022-08-04T00:49:16.077Z,26.96
2022-08-04T00:49:26.070Z,26.96
2022-08-04T00:49:36.090Z,26.97
2022-08-04T00:49:46.071Z,26.96
2022-08-04T00:49:56.072Z,26.97
2022-08-04T00:50:06.073Z,26.98
2022-08-04T00:50:16.068Z,26.96
2022-08-04T00:50:26.064Z,26.98
2022-08-04T00:50:36.079Z,27.01
2022-08-04T00:50:46.066Z,26.97
2022-08-04T00:50:56.073Z,26.98
2022-08-04T00:51:06.060Z,26.94
2022-08-04T00:51:16.070Z,26.97
2022-08-04T00:51:26.058Z,26.97
2022-08-04T00:51:36.062Z,26.97
2022-08-04T00:51:46.057Z,26.97
2022-08-04T00:52:32.485Z,26.96
2022-08-04T00:52:37.973Z,27.01
2022-08-04T00:52:42.644Z,26.94
2022-08-04T00:52:52.634Z,26.97
2022-08-04T00:53:02.643Z,26.98
2022-08-04T00:53:12.632Z,26.96
2022-08-04T00:53:22.634Z,26.96
2022-08-04T00:53:32.631Z,26.96
2022-08-04T00:53:49.527Z,26.96
2022-08-04T00:53:54.608Z,26.97
2022-08-04T00:54:02.630Z,26.94
2022-08-04T00:54:12.631Z,26.94
2022-08-04T00:54:22.627Z,26.94
2022-08-04T00:54:32.627Z,26.94
2022-08-04T00:54:42.626Z,26.91
2022-08-04T00:54:52.629Z,26.93
2022-08-04T00:55:06.907Z,26.93
2022-08-04T00:55:13.434Z,26.91
2022-08-04T00:55:22.625Z,26.91
2022-08-04T00:55:32.622Z,26.93
2022-08-04T00:55:42.623Z,26.90
2022-08-04T00:55:52.619Z,26.91
2022-08-04T00:56:02.618Z,26.88
2022-08-04T00:56:12.615Z,26.90
2022-08-04T00:56:22.619Z,26.93
2022-08-04T00:56:32.622Z,26.93
2022-08-04T00:56:42.628Z,26.90
2022-08-04T00:56:52.609Z,26.91
2022-08-04T00:57:02.609Z,26.91
2022-08-04T00:57:28.468Z,26.91
2022-08-04T00:57:38.224Z,26.90
2022-08-04T00:57:42.887Z,26.93
2022-08-04T00:57:52.891Z,26.93
2022-08-04T00:58:02.889Z,26.94
2022-08-04T00:58:12.889Z,26.94
2022-08-04T00:58:22.884Z,26.94
2022-08-04T00:58:32.906Z,26.93
2022-08-04T00:58:42.908Z,26.93
2022-08-04T00:58:52.885Z,26.96
2022-08-04T00:59:02.894Z,26.93
2022-08-04T00:59:12.892Z,26.94
2022-08-04T00:59:22.880Z,26.93
2022-08-04T00:59:32.874Z,26.91
2022-08-04T00:59:42.881Z,26.93
2022-08-04T00:59:52.878Z,26.94
2022-08-04T01:00:02.879Z,26.93
2022-08-04T01:00:12.876Z,26.93
2022-08-04T01:00:22.873Z,26.91
2022-08-04T01:00:32.873Z,26.93
2022-08-04T01:00:42.873Z,26.90
2022-08-04T01:00:52.872Z,26.91
2022-08-04T01:01:03.012Z,26.88
2022-08-04T01:01:12.890Z,26.87
2022-08-04T01:01:22.939Z,26.86
2022-08-04T01:01:32.910Z,26.84
2022-08-04T01:01:42.908Z,26.87
2022-08-04T01:01:52.952Z,26.87
2022-08-04T01:02:02.866Z,26.84
2022-08-04T01:02:12.877Z,26.83
2022-08-04T01:02:22.861Z,26.87
2022-08-04T01:02:32.856Z,26.83
2022-08-04T01:02:42.861Z,26.83
2022-08-04T01:02:52.854Z,26.84
2022-08-04T01:03:02.860Z,26.81
2022-08-04T01:03:12.875Z,26.81
2022-08-04T01:03:22.856Z,26.83
2022-08-04T01:03:32.849Z,26.83
2022-08-04T01:03:42.856Z,26.83
2022-08-04T01:03:52.848Z,26.76
2022-08-04T01:04:02.849Z,26.81
2022-08-04T01:04:12.845Z,26.79
2022-08-04T01:04:22.847Z,26.79
2022-08-04T01:04:32.846Z,26.79
2022-08-04T01:04:42.850Z,26.79
2022-08-04T01:04:52.841Z,26.78
2022-08-04T01:05:02.847Z,26.79
2022-08-04T01:05:12.837Z,26.79
2022-08-04T01:05:22.841Z,26.78
2022-08-04T01:05:37.538Z,26.76
2022-08-04T01:05:42.844Z,26.78
2022-08-04T01:05:52.833Z,26.81
2022-08-04T01:06:02.838Z,26.79
2022-08-04T01:06:12.833Z,26.79
2022-08-04T01:06:22.835Z,26.76
2022-08-04T01:06:32.833Z,26.78
2022-08-04T01:06:42.831Z,26.78
2022-08-04T01:06:56.547Z,26.81
2022-08-04T01:07:02.830Z,26.83
2022-08-04T01:07:12.905Z,26.83
2022-08-04T01:07:23.167Z,26.83
2022-08-04T01:07:32.832Z,26.81
2022-08-04T01:07:42.824Z,26.83
2022-08-04T01:07:52.826Z,26.79
2022-08-04T01:08:02.822Z,26.81
2022-08-04T01:08:12.819Z,26.78
2022-08-04T01:08:22.817Z,26.79
2022-08-04T01:08:32.815Z,26.76
2022-08-04T01:08:42.822Z,26.78
2022-08-04T01:08:52.817Z,26.78
2022-08-04T01:09:02.818Z,26.76
2022-08-04T01:09:21.281Z,26.75
2022-08-04T01:09:26.216Z,26.75
2022-08-04T01:09:32.810Z,26.76
2022-08-04T01:09:42.818Z,26.76
2022-08-04T01:09:52.811Z,26.78
2022-08-04T01:10:02.811Z,26.75
2022-08-04T01:10:17.253Z,26.78
2022-08-04T01:10:22.812Z,26.78
2022-08-04T01:10:32.805Z,26.78
2022-08-04T01:10:42.808Z,26.75
2022-08-04T01:10:52.805Z,26.78
2022-08-04T01:11:02.809Z,26.78
2022-08-04T01:11:12.811Z,26.76
2022-08-04T01:11:22.802Z,26.76
2022-08-04T01:11:32.801Z,26.76
2022-08-04T01:12:00.902Z,26.78
2022-08-04T01:12:05.551Z,26.75
2022-08-04T01:12:15.556Z,26.76
2022-08-04T01:12:25.573Z,26.78
2022-08-04T01:12:35.550Z,26.78
2022-08-04T01:12:45.548Z,26.76
2022-08-04T01:12:55.550Z,26.76
2022-08-04T01:13:07.754Z,26.78
2022-08-04T01:13:19.463Z,26.83
2022-08-04T01:13:25.542Z,26.78
2022-08-04T01:13:35.547Z,26.78
2022-08-04T01:13:45.542Z,26.76
2022-08-04T01:13:55.543Z,26.76
2022-08-04T01:14:05.536Z,26.78
2022-08-04T01:14:15.551Z,26.76
2022-08-04T01:14:25.694Z,26.76
2022-08-04T01:14:35.538Z,26.78
2022-08-04T01:14:45.531Z,26.75
2022-08-04T01:14:55.533Z,26.78
2022-08-04T01:15:05.532Z,26.76
2022-08-04T01:15:15.534Z,26.78
2022-08-04T01:15:25.530Z,26.78
2022-08-04T01:15:59.411Z,26.78
2022-08-04T01:16:05.193Z,26.79
2022-08-04T01:16:09.851Z,26.75
2022-08-04T01:16:19.864Z,26.75
2022-08-04T01:16:29.851Z,26.75
2022-08-04T01:16:39.849Z,26.72
2022-08-04T01:16:49.848Z,26.75
2022-08-04T01:16:59.844Z,26.69
2022-08-04T01:17:12.985Z,26.72
2022-08-04T01:17:19.966Z,26.71
2022-08-04T01:17:29.857Z,26.71
2022-08-04T01:17:39.840Z,26.71
2022-08-04T01:17:49.842Z,26.71
2022-08-04T01:17:59.841Z,26.71
2022-08-04T01:18:09.843Z,26.69
2022-08-04T01:18:19.837Z,26.68
2022-08-04T01:18:29.838Z,26.66
2022-08-04T01:18:39.835Z,26.68
2022-08-04T01:18:49.836Z,26.66
2022-08-04T01:18:59.832Z,26.68
2022-08-04T01:19:09.834Z,26.65
2022-08-04T01:19:19.830Z,26.61
2022-08-04T01:19:29.833Z,26.65
2022-08-04T01:19:39.829Z,26.65
2022-08-04T01:19:49.831Z,26.65
2022-08-04T01:19:59.824Z,26.65
2022-08-04T01:20:09.832Z,26.65
2022-08-04T01:20:19.823Z,26.66
2022-08-04T01:20:29.835Z,26.66
2022-08-04T01:20:39.819Z,26.66
2022-08-04T01:20:49.826Z,26.68
2022-08-04T01:20:59.820Z,26.66
2022-08-04T01:21:09.829Z,26.65
2022-08-04T01:21:19.818Z,26.66
2022-08-04T01:21:29.815Z,26.65
2022-08-04T01:21:49.815Z,26.66
2022-08-04T01:21:59.821Z,26.68
2022-08-04T01:22:09.821Z,26.66
2022-08-04T01:22:19.811Z,26.66
2022-08-04T01:22:29.814Z,26.68
2022-08-04T01:22:39.825Z,26.64
2022-08-04T01:22:49.813Z,26.68
2022-08-04T01:22:59.809Z,26.68
2022-08-04T01:23:09.809Z,26.66
2022-08-04T01:23:19.805Z,26.66
2022-08-04T01:23:29.811Z,26.65
2022-08-04T01:23:39.801Z,26.66
2022-08-04T01:23:49.804Z,26.66
2022-08-04T01:23:59.818Z,26.65
2022-08-04T01:24:09.805Z,26.66
2022-08-04T01:24:19.798Z,26.69
2022-08-04T01:24:39.797Z,26.68
2022-08-04T01:24:50.864Z,26.69
2022-08-04T01:24:59.790Z,26.68
2022-08-04T01:25:09.796Z,26.66
2022-08-04T01:25:19.798Z,26.66
2022-08-04T01:25:29.803Z,26.65
2022-08-04T01:25:39.790Z,26.61
2022-08-04T01:25:49.788Z,26.65
2022-08-04T01:25:59.792Z,26.65
2022-08-04T01:26:42.445Z,26.66
2022-08-04T01:26:58.659Z,26.66
2022-08-04T01:27:03.986Z,26.68
2022-08-04T01:27:13.418Z,26.66
2022-08-04T01:27:23.452Z,26.66
2022-08-04T01:27:33.361Z,26.65
2022-08-04T01:27:43.374Z,26.66
2022-08-04T01:27:53.356Z,26.65
2022-08-04T01:28:03.365Z,26.61
2022-08-04T01:28:13.357Z,26.61
2022-08-04T01:28:23.359Z,26.60
2022-08-04T01:28:33.355Z,26.61
2022-08-04T01:28:43.354Z,26.61
2022-08-04T01:28:53.352Z,26.57
2022-08-04T01:29:03.371Z,26.56
2022-08-04T01:29:15.963Z,26.56
2022-08-04T01:29:23.374Z,26.57
2022-08-04T01:29:46.391Z,26.56
2022-08-04T01:29:54.960Z,26.54
2022-08-04T01:30:00.338Z,26.51
2022-08-04T01:30:10.330Z,26.54
2022-08-04T01:30:20.326Z,26.51
2022-08-04T01:30:30.331Z,26.56
2022-08-04T01:30:40.321Z,26.50
2022-08-04T01:30:50.326Z,26.51
2022-08-04T01:31:00.323Z,26.53
2022-08-04T01:31:12.938Z,26.51
2022-08-04T01:31:20.320Z,26.53
2022-08-04T01:31:30.325Z,26.50
2022-08-04T01:31:40.317Z,26.51
2022-08-04T01:31:50.330Z,26.51
2022-08-04T01:32:00.354Z,26.49
2022-08-04T01:32:10.318Z,26.47
2022-08-04T01:32:21.049Z,26.47
2022-08-04T01:32:30.720Z,26.47
2022-08-04T01:32:40.312Z,26.49
2022-08-04T01:32:50.318Z,26.46
2022-08-04T01:33:00.308Z,26.50
2022-08-04T01:33:10.311Z,26.49
2022-08-04T01:33:20.305Z,26.47
2022-08-04T01:33:30.309Z,26.49
2022-08-04T01:33:58.396Z,26.47
2022-08-04T01:34:08.670Z,26.49
2022-08-04T01:34:13.333Z,26.44
2022-08-04T01:34:23.352Z,26.42
2022-08-04T01:34:33.358Z,26.46
2022-08-04T01:34:43.334Z,26.46
2022-08-04T01:34:53.328Z,26.47
2022-08-04T01:35:03.339Z,26.49
2022-08-04T01:35:21.681Z,26.49
2022-08-04T01:35:46.428Z,26.49
2022-08-04T01:35:52.515Z,26.44
2022-08-04T01:35:57.259Z,26.46
2022-08-04T01:36:07.213Z,26.41
2022-08-04T01:36:17.246Z,26.41
2022-08-04T01:36:27.265Z,26.41
2022-08-04T01:36:37.216Z,26.44
2022-08-04T01:36:50.055Z,26.41
2022-08-04T01:36:57.230Z,26.42
2022-08-04T01:37:07.181Z,26.41
2022-08-04T01:37:17.184Z,26.41
2022-08-04T01:37:27.181Z,26.38
2022-08-04T01:37:37.181Z,26.41
2022-08-04T01:37:47.177Z,26.44
2022-08-04T01:37:57.182Z,26.42
2022-08-04T01:38:21.010Z,26.39
2022-08-04T01:38:26.391Z,26.42
2022-08-04T01:38:31.063Z,26.41
2022-08-04T01:38:41.063Z,26.39
2022-08-04T01:38:51.080Z,26.39
2022-08-04T01:39:01.129Z,26.41
2022-08-04T01:39:11.098Z,26.42
2022-08-04T01:39:21.134Z,26.42
2022-08-04T01:39:31.120Z,26.41
2022-08-04T01:39:41.069Z,26.39
2022-08-04T01:39:51.055Z,26.41
2022-08-04T01:40:01.059Z,26.38
2022-08-04T01:40:11.072Z,26.39
2022-08-04T01:40:21.056Z,26.41
2022-08-04T01:40:31.056Z,26.41
2022-08-04T01:40:41.054Z,26.44
2022-08-04T01:40:51.047Z,26.46
2022-08-04T01:41:01.050Z,26.44
2022-08-04T01:41:11.047Z,26.42
2022-08-04T01:41:32.167Z,26.41
2022-08-04T01:41:37.526Z,26.41
2022-08-04T01:41:42.192Z,26.36
2022-08-04T01:42:02.514Z,26.38
2022-08-04T01:42:09.725Z,26.38
2022-08-04T01:42:31.442Z,26.36
2022-08-04T01:42:36.805Z,26.39
2022-08-04T01:42:41.471Z,26.36
2022-08-04T01:42:51.473Z,26.39
2022-08-04T01:43:01.468Z,26.41
2022-08-04T01:43:11.468Z,26.36
2022-08-04T01:43:21.466Z,26.39
2022-08-04T01:43:31.470Z,26.38
2022-08-04T01:43:41.466Z,26.38
2022-08-04T01:43:51.463Z,26.34
2022-08-04T01:44:01.464Z,26.35
2022-08-04T01:44:11.465Z,26.34
2022-08-04T01:44:21.483Z,26.35
2022-08-04T01:44:31.464Z,26.36
2022-08-04T01:44:41.459Z,26.36
2022-08-04T01:44:51.452Z,26.34
2022-08-04T01:45:01.459Z,26.32
2022-08-04T01:45:11.466Z,26.35
2022-08-04T01:45:21.454Z,26.35
2022-08-04T01:45:31.451Z,26.31
2022-08-04T01:45:41.453Z,26.31
2022-08-04T01:45:51.447Z,26.32
2022-08-04T01:46:01.451Z,26.35
2022-08-04T01:46:11.447Z,26.36
2022-08-04T01:46:21.451Z,26.35
2022-08-04T01:46:31.446Z,26.32
2022-08-04T01:46:41.452Z,26.35
2022-08-04T01:46:51.442Z,26.34
2022-08-04T01:47:01.467Z,26.35
2022-08-04T01:47:11.439Z,26.34
2022-08-04T01:47:21.737Z,26.35
2022-08-04T01:47:31.450Z,26.31
2022-08-04T01:47:41.440Z,26.35
2022-08-04T01:48:01.446Z,26.34
2022-08-04T01:48:11.433Z,26.34
2022-08-04T01:48:21.433Z,26.35
2022-08-04T01:48:31.472Z,26.35
2022-08-04T01:48:41.440Z,26.35
2022-08-04T01:48:51.433Z,26.36
2022-08-04T01:49:01.435Z,26.38
2022-08-04T01:49:11.458Z,26.36
2022-08-04T01:49:21.429Z,26.39
2022-08-04T01:49:40.583Z,26.38
2022-08-04T01:49:45.424Z,26.38
2022-08-04T01:49:51.421Z,26.38
2022-08-04T01:50:01.422Z,26.39
2022-08-04T01:50:11.425Z,26.39
2022-08-04T01:50:31.414Z,26.35
2022-08-04T01:50:41.420Z,26.38
2022-08-04T01:50:52.941Z,26.39
2022-08-04T01:51:01.419Z,26.36
2022-08-04T01:51:11.413Z,26.41
2022-08-04T01:51:21.413Z,26.39
2022-08-04T01:51:31.411Z,26.38
2022-08-04T01:51:41.414Z,26.35
2022-08-04T01:51:51.407Z,26.42
2022-08-04T01:52:01.409Z,26.38
2022-08-04T01:52:11.432Z,26.41
2022-08-04T01:52:21.408Z,26.39
2022-08-04T01:52:31.408Z,26.36
2022-08-04T01:52:41.407Z,26.38
2022-08-04T01:53:01.407Z,26.36
2022-08-04T01:53:11.404Z,26.36
2022-08-04T01:53:21.403Z,26.39
2022-08-04T01:53:31.426Z,26.39
2022-08-04T01:53:41.404Z,26.38
2022-08-04T01:53:51.393Z,26.39
2022-08-04T01:54:01.396Z,26.38
2022-08-04T01:54:11.394Z,26.36
2022-08-04T01:54:21.396Z,26.38
2022-08-04T01:54:31.391Z,26.38
2022-08-04T01:54:41.405Z,26.35
2022-08-04T01:54:51.392Z,26.38
2022-08-04T01:55:01.393Z,26.38
2022-08-04T01:55:11.422Z,26.38
2022-08-04T01:55:52.092Z,26.36
2022-08-04T01:55:59.822Z,26.35
2022-08-04T01:56:04.494Z,26.35
2022-08-04T01:56:14.486Z,26.35
2022-08-04T01:56:24.484Z,26.34
2022-08-04T01:56:34.483Z,26.35
2022-08-04T01:56:44.518Z,26.35
2022-08-04T01:56:54.484Z,26.36
2022-08-04T01:57:38.733Z,26.35
2022-08-04T01:57:43.897Z,26.36
2022-08-04T01:57:48.769Z,26.35
2022-08-04T01:57:58.557Z,26.34
2022-08-04T01:58:08.563Z,26.32
2022-08-04T01:58:18.561Z,26.35
2022-08-04T01:58:28.553Z,26.34
2022-08-04T01:58:38.556Z,26.34
2022-08-04T01:58:48.551Z,26.35
2022-08-04T01:58:58.553Z,26.35
2022-08-04T01:59:08.548Z,26.34
2022-08-04T01:59:18.552Z,26.38
2022-08-04T01:59:28.549Z,26.32
2022-08-04T01:59:38.546Z,26.34
2022-08-04T01:59:48.546Z,26.32
2022-08-04T01:59:58.547Z,26.35
2022-08-04T02:00:08.541Z,26.32
2022-08-04T02:00:18.553Z,26.34
2022-08-04T02:00:28.542Z,26.34
2022-08-04T02:00:38.544Z,26.32
2022-08-04T02:00:51.139Z,26.32
2022-08-04T02:00:58.586Z,26.32
2022-08-04T02:01:09.226Z,26.31
2022-08-04T02:01:18.620Z,26.29
2022-08-04T02:01:28.610Z,26.35
2022-08-04T02:01:38.626Z,26.34
2022-08-04T02:01:48.636Z,26.31
2022-08-04T02:01:58.695Z,26.31
2022-08-04T02:02:08.690Z,26.34
2022-08-04T02:02:18.688Z,26.31
2022-08-04T02:02:28.664Z,26.29
2022-08-04T02:02:38.582Z,26.28
2022-08-04T02:02:48.610Z,26.31
2022-08-04T02:02:58.559Z,26.32
2022-08-04T02:03:08.528Z,26.31
2022-08-04T02:03:18.527Z,26.34
2022-08-04T02:04:18.812Z,26.34
2022-08-04T02:04:27.400Z,26.35
2022-08-04T02:04:32.063Z,26.29
2022-08-04T02:04:42.066Z,26.34
2022-08-04T02:04:52.065Z,26.32
2022-08-04T02:05:02.061Z,26.31
2022-08-04T02:05:12.061Z,26.29
2022-08-04T02:05:22.060Z,26.29
2022-08-04T02:06:02.484Z,26.32
2022-08-04T02:06:08.530Z,26.32
2022-08-04T02:06:13.193Z,26.29
2022-08-04T02:06:23.196Z,26.31
2022-08-04T02:06:33.190Z,26.31
2022-08-04T02:06:43.194Z,26.31
2022-08-04T02:06:53.189Z,26.36
2022-08-04T02:07:03.193Z,26.36
2022-08-04T02:07:18.871Z,26.35
2022-08-04T02:07:23.614Z,26.36
2022-08-04T02:07:33.199Z,26.34
2022-08-04T02:07:43.188Z,26.35
2022-08-04T02:07:53.181Z,26.32
2022-08-04T02:08:03.186Z,26.28
2022-08-04T02:08:13.185Z,26.28
2022-08-04T02:08:23.183Z,26.28
2022-08-04T02:08:33.177Z,26.28
2022-08-04T02:08:43.194Z,26.28
2022-08-04T02:08:53.180Z,26.28
2022-08-04T02:09:03.184Z,26.27
2022-08-04T02:09:13.174Z,26.24
2022-08-04T02:09:23.176Z,26.28
2022-08-04T02:09:33.175Z,26.28
2022-08-04T02:09:54.288Z,26.27
2022-08-04T02:09:59.645Z,26.27
2022-08-04T02:10:04.329Z,26.24
2022-08-04T02:10:14.312Z,26.27
2022-08-04T02:10:24.320Z,26.24
2022-08-04T02:10:34.305Z,26.28
2022-08-04T02:10:44.315Z,26.24
2022-08-04T02:10:54.304Z,26.29
2022-08-04T02:11:04.304Z,26.29
2022-08-04T02:11:14.300Z,26.32
2022-08-04T02:11:24.304Z,26.31
2022-08-04T02:11:34.297Z,26.31
2022-08-04T02:11:44.301Z,26.32
2022-08-04T02:11:54.294Z,26.31
2022-08-04T02:12:04.301Z,26.29
2022-08-04T02:12:15.861Z,26.29
2022-08-04T02:12:24.297Z,26.29
2022-08-04T02:12:34.294Z,26.32
2022-08-04T02:12:44.309Z,26.32
2022-08-04T02:12:54.290Z,26.29
2022-08-04T02:13:04.293Z,26.31
2022-08-04T02:13:14.291Z,26.32
2022-08-04T02:13:24.650Z,26.32
2022-08-04T02:13:34.284Z,26.31
2022-08-04T02:13:44.286Z,26.31
2022-08-04T02:13:54.284Z,26.29
2022-08-04T02:14:04.286Z,26.31
2022-08-04T02:14:14.283Z,26.29
2022-08-04T02:14:24.288Z,26.27
2022-08-04T02:14:34.279Z,26.27
2022-08-04T02:14:44.282Z,26.28
2022-08-04T02:14:54.277Z,26.27
2022-08-04T02:15:04.278Z,26.24
2022-08-04T02:15:14.287Z,26.28
2022-08-04T02:15:24.279Z,26.24
2022-08-04T02:15:34.273Z,26.27
2022-08-04T02:15:44.274Z,26.28
2022-08-04T02:15:54.273Z,26.27
2022-08-04T02:16:04.294Z,26.28
2022-08-04T02:16:14.270Z,26.31
2022-08-04T02:16:24.272Z,26.29
2022-08-04T02:16:34.266Z,26.27
2022-08-04T02:16:44.269Z,26.29
2022-08-04T02:16:54.264Z,26.28
2022-08-04T02:17:04.268Z,26.24